Time;durP1;ratioP1;P1;durP2;ratioP2;P2;SDS_P1;SDS_P2;PMS_P1;PMS_P2;Temp;Humidity;BMP_temperature;BMP_pressure;BME280_temperature;BME280_humidity;BME280_pressure;Samples;Min_cycle;Max_cycle;Signal;HPM_P1;HPM_P2
2023/12/17 00:03:35;;;;;;;;;53.33;45.33;;;;;8.49;79.83;103302.38;4907767;29;44996;-79
2023/12/17 00:06:00;;;;;;;;;40.00;37.67;;;;;8.51;79.60;103303.38;4908062;29;44838;-81
2023/12/17 00:08:25;;;;;;;;;54.00;42.33;;;;;8.51;79.81;103303.38;4889674;29;46939;-81
2023/12/17 00:10:51;;;;;;;;;53.67;44.33;;;;;8.53;79.92;103293.78;4906639;29;44800;-81
2023/12/17 00:13:18;;;;;;;;;54.33;44.00;;;;;8.49;79.82;103283.81;4907519;29;44795;-79
2023/12/17 00:15:44;;;;;;;;;52.67;45.00;;;;;8.50;79.78;103296.22;4906981;29;44786;-79
2023/12/17 00:18:11;;;;;;;;;51.00;45.00;;;;;8.55;80.24;103301.84;4907204;29;45393;-80
2023/12/17 00:20:38;;;;;;;;;46.67;42.33;;;;;8.44;79.98;103293.19;4907697;29;44740;-80
2023/12/17 00:23:05;;;;;;;;;55.67;44.33;;;;;8.44;79.94;103293.19;4906600;29;44793;-79
2023/12/17 00:25:31;;;;;;;;;54.00;44.00;;;;;8.47;80.01;103306.66;4907251;29;45446;-79
2023/12/17 00:27:57;;;;;;;;;49.33;43.67;;;;;8.43;80.17;103299.31;4890585;28;47814;-79
2023/12/17 00:30:22;;;;;;;;;46.67;42.00;;;;;8.44;80.46;103310.84;4889678;28;44825;-80
2023/12/17 00:32:48;;;;;;;;;51.00;42.33;;;;;8.37;80.07;103304.22;4906881;29;44823;-80
2023/12/17 00:35:14;;;;;;;;;46.50;40.00;;;;;8.36;80.33;103299.69;4889150;29;45012;-79
2023/12/17 00:37:39;;;;;;;;;51.67;43.67;;;;;8.42;80.89;103316.03;4905315;28;46826;-80
2023/12/17 00:40:05;;;;;;;;;51.00;43.67;;;;;8.43;80.89;103325.84;4890245;28;45246;-80
2023/12/17 00:42:30;;;;;;;;;55.33;46.33;;;;;8.38;80.97;103329.88;4889586;29;44841;-80
2023/12/17 00:44:56;;;;;;;;;49.67;41.67;;;;;8.37;80.93;103336.94;4906920;29;44841;-80
2023/12/17 00:47:21;;;;;;;;;54.67;45.67;;;;;8.32;81.07;103324.19;4888681;28;47094;-79
2023/12/17 00:49:47;;;;;;;;;57.00;46.33;;;;;8.35;80.96;103329.72;4889711;28;44902;-80
2023/12/17 00:52:12;;;;;;;;;58.00;48.50;;;;;8.39;81.05;103321.13;4904771;29;45191;-80
2023/12/17 00:54:37;;;;;;;;;61.33;50.00;;;;;8.41;81.37;103322.19;4889334;28;44909;-81
2023/12/17 00:57:03;;;;;;;;;52.00;44.67;;;;;8.37;81.28;103321.03;4888445;28;47479;-80
2023/12/17 00:59:28;;;;;;;;;59.25;49.25;;;;;8.43;81.25;103341.75;4888870;29;44976;-81
2023/12/17 01:01:54;;;;;;;;;63.00;50.25;;;;;8.46;81.08;103339.28;4888287;29;45049;-79
2023/12/17 01:04:19;;;;;;;;;57.00;46.00;;;;;8.41;81.13;103333.69;4889748;28;44887;-80
2023/12/17 01:06:44;;;;;;;;;53.00;44.00;;;;;8.49;81.03;103341.25;4889420;29;46882;-81
2023/12/17 01:09:12;;;;;;;;;59.25;47.25;;;;;8.51;80.91;103364.38;4889281;28;45066;-80
2023/12/17 01:11:38;;;;;;;;;75.75;60.25;;;;;8.50;81.24;103358.97;4904263;28;44761;-80
2023/12/17 01:14:03;;;;;;;;;65.75;53.50;;;;;8.46;80.99;103356.94;4888799;29;44737;-82
2023/12/17 01:16:31;;;;;;;;;64.50;50.00;;;;;8.59;81.53;103363.13;4905442;29;45246;-79
2023/12/17 01:18:57;;;;;;;;;75.50;61.00;;;;;8.51;81.34;103355.53;4888510;29;44814;-80
2023/12/17 01:21:25;;;;;;;;;70.00;57.25;;;;;8.53;81.37;103364.50;4888408;29;44931;-81
2023/12/17 01:23:50;;;;;;;;;72.00;59.00;;;;;8.43;81.54;103351.47;4905219;29;44905;-80
2023/12/17 01:26:22;;;;;;;;;81.75;64.25;;;;;8.51;81.59;103359.09;4905192;29;44924;-80
2023/12/17 01:28:51;;;;;;;;;81.75;66.25;;;;;8.44;81.49;103354.19;4887747;29;45277;-80
2023/12/17 01:31:23;;;;;;;;;86.75;69.75;;;;;8.58;81.90;103357.72;4888129;28;44730;-80
2023/12/17 01:33:49;;;;;;;;;86.50;71.00;;;;;8.42;81.47;103355.81;4888496;28;44850;-79
2023/12/17 01:36:14;;;;;;;;;81.75;65.75;;;;;8.35;81.98;103342.97;4892406;29;45582;-80
2023/12/17 01:38:39;;;;;;;;;90.50;71.00;;;;;8.33;81.90;103342.84;4886316;29;44762;-80
2023/12/17 01:41:06;;;;;;;;;83.50;66.25;;;;;8.30;81.88;103355.00;4870025;29;44725;-80
2023/12/17 01:43:32;;;;;;;;;81.50;65.00;;;;;8.27;82.21;103350.41;4869459;29;44788;-79
2023/12/17 01:45:58;;;;;;;;;73.00;58.75;;;;;8.18;82.03;103348.09;4885761;29;45042;-80
2023/12/17 01:48:26;;;;;;;;;77.00;61.00;;;;;8.16;81.78;103325.88;4870455;29;45386;-80
2023/12/17 01:50:53;;;;;;;;;74.50;60.00;;;;;8.13;81.98;103332.69;4885476;28;44858;-80
2023/12/17 01:53:21;;;;;;;;;71.50;58.25;;;;;8.08;82.21;103332.41;4886816;29;45258;-79
2023/12/17 01:55:49;;;;;;;;;74.50;58.00;;;;;8.11;82.13;103335.22;4886234;29;45198;-80
2023/12/17 01:58:16;;;;;;;;;76.75;59.50;;;;;8.07;82.15;103341.16;4886274;29;45095;-80
2023/12/17 02:04:06;;;;;;;;;70.50;56.00;;;;;8.66;78.92;103327.31;4885878;29;45269;-82
2023/12/17 02:06:39;;;;;;;;;71.00;57.50;;;;;8.56;78.67;103317.88;4885563;29;45078;-81
2023/12/17 02:09:04;;;;;;;;;72.00;58.75;;;;;8.73;78.44;103331.28;4869497;29;44817;-81
2023/12/17 02:11:30;;;;;;;;;69.00;56.25;;;;;8.72;78.37;103325.03;4869430;29;44793;-81
2023/12/17 02:13:55;;;;;;;;;72.75;56.25;;;;;8.74;78.76;103322.50;4885124;29;45145;-81
2023/12/17 02:19:42;;;;;;;;;71.25;57.25;;;;;8.78;78.55;103324.50;4885474;29;44801;-81
2023/12/17 02:22:08;;;;;;;;;77.50;60.50;;;;;8.70;79.15;103315.16;4869012;29;44862;-81
2023/12/17 02:24:34;;;;;;;;;76.25;62.00;;;;;8.65;79.46;103313.97;4886272;29;45180;-82
2023/12/17 02:27:00;;;;;;;;;74.00;58.75;;;;;8.06;80.83;103318.13;4851797;29;47496;-80
2023/12/17 02:32:47;;;;;;;;;64.25;49.50;;;;;8.48;80.04;103303.16;4849500;29;44844;-80
2023/12/17 02:35:14;;;;;;;;;66.25;56.50;;;;;8.58;79.94;103310.94;4850486;29;44763;-80
2023/12/17 02:37:39;;;;;;;;;57.25;48.75;;;;;8.42;80.26;103300.13;4850878;29;45203;-80
2023/12/17 02:40:11;;;;;;;;;62.75;49.25;;;;;8.52;80.42;103283.97;4851335;29;45335;-79
2023/12/17 02:42:36;;;;;;;;;66.00;49.50;;;;;8.34;80.32;103282.78;4849242;29;44756;-79
2023/12/17 02:45:02;;;;;;;;;66.00;50.00;;;;;8.30;80.49;103280.75;4833947;29;45436;-80
2023/12/17 02:47:28;;;;;;;;;62.25;50.00;;;;;8.40;80.51;103285.81;4834270;29;47200;-79
2023/12/17 02:49:54;;;;;;;;;54.75;43.50;;;;;8.25;80.71;103280.47;4834520;29;45419;-79
2023/12/17 02:52:19;;;;;;;;;58.00;48.25;;;;;8.27;80.21;103285.88;4852070;29;44839;-80
2023/12/17 02:54:44;;;;;;;;;59.50;47.00;;;;;8.25;80.28;103276.91;4851165;29;45452;-80
2023/12/17 02:57:10;;;;;;;;;63.75;50.25;;;;;8.22;80.56;103272.34;4850666;29;45591;-79
2023/12/17 02:59:35;;;;;;;;;66.00;52.00;;;;;8.20;80.76;103274.88;4850671;29;45127;-80
2023/12/17 03:02:01;;;;;;;;;64.50;54.50;;;;;8.14;80.52;103258.56;4831613;29;44918;-80
2023/12/17 03:04:26;;;;;;;;;62.50;51.25;;;;;7.64;82.27;103263.22;4847461;29;45438;-80
2023/12/17 03:06:52;;;;;;;;;67.25;54.50;;;;;7.45;83.33;103271.63;4831860;29;47457;-81
2023/12/17 03:09:17;;;;;;;;;67.00;55.50;;;;;7.33;84.82;103256.78;4831076;29;44896;-80
2023/12/17 03:11:43;;;;;;;;;59.00;47.50;;;;;7.29;84.99;103244.16;4832030;29;44908;-80
2023/12/17 03:14:08;;;;;;;;;67.50;53.75;;;;;7.29;85.25;103237.91;4832578;29;44922;-79
2023/12/17 03:16:33;;;;;;;;;72.00;57.75;;;;;7.22;85.96;103224.28;4831385;29;46966;-80
2023/12/17 03:18:59;;;;;;;;;64.50;54.25;;;;;7.25;86.04;103231.53;4831999;29;45905;-80
2023/12/17 03:21:26;;;;;;;;;72.50;56.50;;;;;7.26;86.09;103230.69;4846615;29;45524;-80
2023/12/17 03:23:53;;;;;;;;;60.50;49.25;;;;;7.32;86.55;103219.59;4847939;29;44976;-81
2023/12/17 03:26:19;;;;;;;;;65.50;53.75;;;;;7.27;86.80;103228.94;4862598;29;45488;-80
2023/12/17 03:28:45;;;;;;;;;63.50;53.50;;;;;7.20;86.87;103222.34;4869492;29;44867;-80
2023/12/17 03:31:17;;;;;;;;;60.00;49.50;;;;;7.27;87.56;103214.00;4868321;29;45379;-80
2023/12/17 03:33:43;;;;;;;;;63.00;51.50;;;;;7.23;87.27;103219.91;4872672;29;45423;-80
2023/12/17 03:36:12;;;;;;;;;62.25;49.50;;;;;7.28;87.39;103220.22;4855766;29;47134;-80
2023/12/17 03:38:38;;;;;;;;;63.50;51.00;;;;;7.18;87.79;103221.31;4872690;29;45004;-80
2023/12/17 03:41:04;;;;;;;;;61.75;51.00;;;;;7.19;88.14;103217.84;4872351;29;45460;-80
2023/12/17 03:43:29;;;;;;;;;66.50;55.50;;;;;7.15;88.13;103216.75;4872679;29;45483;-81
2023/12/17 03:45:54;;;;;;;;;61.75;52.00;;;;;7.13;88.20;103213.06;4853204;29;46989;-80
2023/12/17 03:48:22;;;;;;;;;46.75;40.50;;;;;7.07;88.12;103209.06;4853380;29;44838;-81
2023/12/17 03:50:47;;;;;;;;;59.25;49.75;;;;;7.07;88.33;103203.78;4867417;29;45775;-80
2023/12/17 03:53:13;;;;;;;;;61.25;51.00;;;;;7.10;88.40;103214.59;4851536;29;44994;-82
2023/12/17 03:55:38;;;;;;;;;60.25;49.50;;;;;6.97;88.25;103194.34;4866069;29;47150;-80
2023/12/17 03:58:04;;;;;;;;;65.50;51.25;;;;;7.04;88.30;103208.88;4851066;29;44818;-80
2023/12/17 04:00:29;;;;;;;;;69.50;53.75;;;;;6.96;88.05;103203.97;4853510;29;45724;-80
2023/12/17 04:02:55;;;;;;;;;63.25;50.00;;;;;6.95;87.88;103204.81;4870479;29;45361;-80
2023/12/17 04:05:21;;;;;;;;;71.00;54.50;;;;;6.90;88.02;103206.19;4870005;29;45516;-80
2023/12/17 04:07:46;;;;;;;;;66.00;55.50;;;;;6.81;88.16;103192.34;4870608;29;45421;-80
2023/12/17 04:10:12;;;;;;;;;68.75;56.25;;;;;6.77;87.84;103182.38;4871349;29;45444;-80
2023/12/17 04:12:37;;;;;;;;;69.25;54.75;;;;;6.80;88.18;103186.13;4855090;29;45019;-81
2023/12/17 04:15:03;;;;;;;;;68.00;54.00;;;;;6.79;87.98;103201.91;4854419;29;47110;-80
2023/12/17 04:17:29;;;;;;;;;66.25;53.50;;;;;6.76;88.20;103196.41;4870156;29;45489;-80
2023/12/17 04:19:54;;;;;;;;;59.25;47.25;;;;;6.74;88.08;103198.03;4853916;29;44899;-80
2023/12/17 04:22:20;;;;;;;;;63.50;53.75;;;;;6.71;87.81;103193.44;4869949;29;45451;-80
2023/12/17 04:24:45;;;;;;;;;56.75;47.50;;;;;6.69;87.99;103192.44;4871647;29;45078;-81
2023/12/17 04:27:10;;;;;;;;;62.75;49.50;;;;;6.62;88.00;103187.50;4869265;29;44802;-80
2023/12/17 04:29:36;;;;;;;;;62.50;49.50;;;;;6.51;87.87;103170.00;4871466;29;45178;-80
2023/12/17 04:32:02;;;;;;;;;61.50;50.75;;;;;6.59;87.86;103188.22;4872834;29;44789;-80
2023/12/17 04:34:27;;;;;;;;;68.50;54.75;;;;;6.57;87.99;103171.34;4871070;29;45798;-79
2023/12/17 04:36:53;;;;;;;;;59.25;51.00;;;;;6.56;87.57;103177.44;4853109;29;45411;-79
2023/12/17 04:39:20;;;;;;;;;64.50;54.75;;;;;6.55;87.76;103186.16;4854512;29;45332;-80
2023/12/17 04:41:45;;;;;;;;;60.50;50.75;;;;;6.56;87.46;103193.31;4852920;29;45635;-80
2023/12/17 04:44:10;;;;;;;;;64.75;50.50;;;;;6.53;87.55;103184.25;4868589;29;56142;-80
2023/12/17 04:46:37;;;;;;;;;63.50;50.00;;;;;6.47;87.68;103178.53;4851341;29;60205;-79
2023/12/17 04:49:03;;;;;;;;;64.50;52.50;;;;;6.45;87.21;103178.41;4869315;29;44823;-79
2023/12/17 04:51:28;;;;;;;;;62.75;50.75;;;;;6.47;87.26;103184.72;4868973;29;45476;-80
2023/12/17 04:53:54;;;;;;;;;58.00;48.25;;;;;6.44;86.88;103181.84;4852202;29;46953;-80
2023/12/17 04:56:21;;;;;;;;;57.75;45.50;;;;;6.51;86.80;103183.22;4853339;29;44842;-80
2023/12/17 04:58:47;;;;;;;;;52.75;46.25;;;;;6.41;87.16;103176.38;4870131;29;44920;-80
2023/12/17 05:01:12;;;;;;;;;54.50;46.00;;;;;6.40;86.65;103180.75;4867914;29;45513;-80
2023/12/17 05:03:38;;;;;;;;;47.75;43.25;;;;;6.39;86.84;103178.88;4869083;29;45069;-80
2023/12/17 05:06:04;;;;;;;;;53.25;46.00;;;;;6.37;86.13;103184.88;4869624;29;45073;-80
2023/12/17 05:08:30;;;;;;;;;48.25;42.75;;;;;6.29;86.59;103171.13;4869029;29;44830;-81
2023/12/17 05:10:55;;;;;;;;;44.33;39.67;;;;;6.33;86.74;103180.19;4853795;29;45440;-80
2023/12/17 05:13:20;;;;;;;;;51.25;42.25;;;;;6.31;86.58;103176.53;4869452;29;64900;-81
2023/12/17 05:15:46;;;;;;;;;51.50;44.50;;;;;6.32;86.71;103181.00;4853330;29;45427;-80
2023/12/17 05:18:11;;;;;;;;;54.67;43.33;;;;;7.04;83.83;103171.84;4870201;29;44858;-81
2023/12/17 05:20:37;;;;;;;;;50.00;43.50;;;;;7.19;82.29;103172.84;4870881;29;45352;-80
2023/12/17 05:23:03;;;;;;;;;51.25;42.50;;;;;7.19;81.22;103179.09;4853604;29;45341;-80
2023/12/17 05:25:28;;;;;;;;;43.67;41.33;;;;;7.21;80.95;103165.94;4869565;29;44853;-80
2023/12/17 05:27:54;;;;;;;;;48.67;42.33;;;;;7.22;80.65;103173.06;4854277;29;45334;-80
2023/12/17 05:30:19;;;;;;;;;44.00;41.67;;;;;7.26;80.13;103180.41;4854918;29;45920;-80
2023/12/17 05:32:45;;;;;;;;;47.67;42.00;;;;;7.24;80.09;103179.38;4869882;29;45215;-80
2023/12/17 05:35:10;;;;;;;;;44.33;41.33;;;;;7.20;79.92;103180.91;4869754;29;45378;-80
2023/12/17 05:37:35;;;;;;;;;54.00;45.67;;;;;7.17;79.78;103182.41;4872052;29;45357;-80
2023/12/17 05:40:02;;;;;;;;;43.00;40.33;;;;;7.26;79.79;103192.72;4871462;29;44777;-80
2023/12/17 05:42:27;;;;;;;;;38.67;35.00;;;;;7.15;79.43;103190.28;4852609;29;47242;-79
2023/12/17 05:44:52;;;;;;;;;38.00;35.67;;;;;7.15;79.47;103191.97;4869526;29;44730;-80
2023/12/17 05:47:18;;;;;;;;;43.67;40.00;;;;;7.18;79.63;103197.50;4868958;29;44877;-80
2023/12/17 05:49:43;;;;;;;;;38.00;33.67;;;;;7.16;79.28;103196.47;4868054;29;45371;-80
2023/12/17 05:52:09;;;;;;;;;39.00;33.33;;;;;7.17;79.01;103195.66;4853118;29;46964;-80
2023/12/17 05:54:35;;;;;;;;;40.33;39.33;;;;;7.25;79.38;103190.88;4866866;29;45489;-80
2023/12/17 05:57:01;;;;;;;;;35.00;33.67;;;;;7.18;78.98;103192.22;4867946;29;44807;-80
2023/12/17 05:59:26;;;;;;;;;40.33;35.67;;;;;7.17;78.77;103199.25;4853478;29;44814;-80
2023/12/17 06:01:52;;;;;;;;;39.00;38.33;;;;;7.16;78.75;103199.13;4853317;29;46736;-81
2023/12/17 06:04:18;;;;;;;;;33.00;30.00;;;;;7.13;78.43;103198.91;4853647;29;45724;-81
2023/12/17 06:06:46;;;;;;;;;41.67;34.67;;;;;7.26;78.31;103201.56;4853329;29;45732;-81
2023/12/17 06:09:12;;;;;;;;;36.00;31.67;;;;;7.02;78.28;103195.53;4867641;29;45427;-79
2023/12/17 06:11:37;;;;;;;;;36.00;33.67;;;;;7.03;78.08;103188.50;4870966;29;45021;-79
2023/12/17 06:14:03;;;;;;;;;36.67;33.67;;;;;7.00;78.31;103183.94;4870885;29;45358;-80
2023/12/17 06:16:29;;;;;;;;;38.00;33.33;;;;;6.96;78.33;103190.75;4853637;29;45384;-80
2023/12/17 06:18:54;;;;;;;;;40.00;33.67;;;;;6.96;78.16;103196.03;4870896;29;44865;-80
2023/12/17 06:21:24;;;;;;;;;34.67;32.33;;;;;7.11;78.13;103196.19;4853977;29;47185;-80
2023/12/17 06:23:51;;;;;;;;;31.33;28.67;;;;;6.89;78.23;103183.22;4870011;29;44878;-79
2023/12/17 06:26:19;;;;;;;;;31.67;26.00;;;;;6.94;78.40;103197.66;4881145;29;44769;-80
2023/12/17 06:28:45;;;;;;;;;43.33;34.67;;;;;6.84;78.53;103191.66;4869952;29;44916;-82
2023/12/17 06:31:11;;;;;;;;;36.33;32.33;;;;;6.83;78.28;103206.59;4853212;29;47103;-81
2023/12/17 06:33:36;;;;;;;;;32.00;30.33;;;;;6.81;78.55;103198.56;4869307;29;44976;-81
2023/12/17 06:36:01;;;;;;;;;34.33;31.67;;;;;6.76;78.41;103188.47;4878514;29;44787;-80
2023/12/17 06:38:27;;;;;;;;;36.67;36.00;;;;;6.79;78.59;103194.88;4904579;29;44898;-79
2023/12/17 06:40:54;;;;;;;;;29.00;27.67;;;;;6.76;78.64;103185.81;4903564;29;45298;-82
2023/12/17 06:46:42;;;;;;;;;37.00;31.67;;;;;6.82;78.34;103196.81;4905005;29;44832;-79
2023/12/17 06:49:07;;;;;;;;;33.00;32.67;;;;;6.79;78.17;103201.91;4904313;29;44822;-79
2023/12/17 06:51:32;;;;;;;;;26.67;26.00;;;;;6.77;78.37;103192.97;4904707;28;46876;-81
2023/12/17 06:53:58;;;;;;;;;31.33;26.67;;;;;6.69;78.23;103189.78;4887774;29;44982;-80
2023/12/17 06:59:45;;;;;;;;;44.67;32.00;;;;;6.72;78.23;103207.56;4904216;29;45048;-81
2023/12/17 07:02:10;;;;;;;;;39.33;36.00;;;;;6.65;78.06;103193.03;4903708;29;45106;-81
2023/12/17 07:04:36;;;;;;;;;34.00;34.00;;;;;6.66;78.32;103201.88;4887024;29;44855;-80
2023/12/17 07:07:01;;;;;;;;;38.67;36.33;;;;;6.66;78.28;103204.50;4887070;29;45069;-82
2023/12/17 07:09:27;;;;;;;;;34.33;32.33;;;;;6.62;78.21;103198.09;4903425;29;44893;-80
2023/12/17 07:11:52;;;;;;;;;32.67;31.00;;;;;6.55;78.34;103191.47;4885772;29;47346;-79
2023/12/17 07:14:17;;;;;;;;;31.67;28.00;;;;;6.54;78.66;103194.00;4886530;29;44830;-80
2023/12/17 07:16:43;;;;;;;;;31.00;27.00;;;;;6.61;78.41;103191.88;4904246;29;45117;-80
2023/12/17 07:19:08;;;;;;;;;32.67;29.00;;;;;6.61;78.34;103190.97;4887432;29;45146;-80
2023/12/17 07:21:34;;;;;;;;;24.00;24.00;;;;;6.53;78.72;103177.22;4887137;28;46553;-81
2023/12/17 07:23:59;;;;;;;;;29.00;28.00;;;;;6.61;78.46;103191.88;4904734;29;45160;-82
2023/12/17 07:26:24;;;;;;;;;30.33;25.00;;;;;6.68;78.13;103189.66;4886576;28;45303;-82
2023/12/17 07:28:50;;;;;;;;;30.00;30.00;;;;;6.70;78.39;103183.66;4905259;28;44900;-81
2023/12/17 07:31:15;;;;;;;;;31.33;29.67;;;;;6.68;78.57;103187.03;4887337;29;47237;-79
2023/12/17 07:33:42;;;;;;;;;37.00;33.00;;;;;6.80;78.46;103182.56;4903812;28;44853;-83
2023/12/17 07:36:07;;;;;;;;;30.33;28.00;;;;;6.67;78.63;103186.13;4902243;29;44867;-80
2023/12/17 07:38:33;;;;;;;;;27.33;24.67;;;;;6.72;78.44;103178.50;4887330;28;44819;-80
2023/12/17 07:40:59;;;;;;;;;28.67;24.67;;;;;6.63;78.45;103173.50;4887020;28;45228;-81
2023/12/17 07:43:24;;;;;;;;;32.33;29.33;;;;;6.57;78.61;103163.41;4902828;28;44947;-80
2023/12/17 07:45:50;;;;;;;;;31.00;27.67;;;;;6.70;78.60;103178.38;4904192;28;44831;-80
2023/12/17 07:48:15;;;;;;;;;33.33;29.33;;;;;6.67;78.65;103171.97;4905121;28;44800;-81
2023/12/17 07:50:43;;;;;;;;;32.33;27.67;;;;;6.68;78.78;103181.72;4887737;29;54553;-81
2023/12/17 07:53:09;;;;;;;;;32.00;29.00;;;;;6.66;78.46;103172.78;4886921;28;45094;-81
2023/12/17 07:55:34;;;;;;;;;31.67;31.67;;;;;6.63;78.88;103176.13;4904374;28;44977;-81
2023/12/17 07:57:59;;;;;;;;;34.67;30.33;;;;;6.60;78.80;103178.56;4905385;28;44845;-81
2023/12/17 08:00:25;;;;;;;;;28.33;27.33;;;;;6.58;79.13;103172.25;4905252;28;45292;-82
2023/12/17 08:02:50;;;;;;;;;25.67;23.33;;;;;6.61;78.85;103185.69;4903920;28;44748;-81
2023/12/17 08:05:17;;;;;;;;;21.67;20.67;;;;;6.62;78.79;103179.56;4887920;29;45355;-81
2023/12/17 08:07:49;;;;;;;;;28.00;28.00;;;;;6.56;78.61;103166.88;4888727;29;44867;-81
2023/12/17 08:10:14;;;;;;;;;23.67;23.33;;;;;6.56;78.69;103180.09;4904019;28;45201;-80
2023/12/17 08:12:40;;;;;;;;;29.33;25.33;;;;;6.58;78.85;103180.16;4904725;28;44769;-82
2023/12/17 08:15:05;;;;;;;;;30.00;26.67;;;;;6.53;78.88;103174.56;4890317;28;44995;-81
2023/12/17 08:17:37;;;;;;;;;19.00;18.33;;;;;6.69;78.68;103178.28;4890657;29;44986;-80
2023/12/17 08:20:06;;;;;;;;;31.67;28.33;;;;;6.71;78.82;103176.69;4906513;28;45468;-80
2023/12/17 08:22:32;;;;;;;;;27.33;27.33;;;;;6.50;79.06;103190.22;4905305;29;44793;-79
2023/12/17 08:24:58;;;;;;;;;28.67;26.33;;;;;6.48;78.85;103185.63;4906752;28;44823;-81
2023/12/17 08:27:23;;;;;;;;;26.67;26.00;;;;;6.50;78.64;103182.28;4906777;28;45200;-81
2023/12/17 08:29:50;;;;;;;;;30.00;26.33;;;;;6.54;78.74;103184.31;4906355;29;45758;-81
2023/12/17 08:32:17;;;;;;;;;26.00;22.67;;;;;6.53;78.84;103187.78;4889568;28;44879;-79
2023/12/17 08:34:43;;;;;;;;;26.00;26.00;;;;;6.55;78.46;103188.81;4888955;29;44983;-80
2023/12/17 08:37:08;;;;;;;;;27.67;25.33;;;;;6.54;78.07;103184.31;4905810;28;44880;-79
2023/12/17 08:39:33;;;;;;;;;17.00;17.00;;;;;6.50;78.71;103178.72;4888933;29;47252;-80
2023/12/17 08:41:59;;;;;;;;;25.67;25.33;;;;;6.50;78.63;103171.69;4905773;29;44719;-80
2023/12/17 08:44:25;;;;;;;;;31.67;28.67;;;;;6.54;78.54;103178.13;4889604;28;45221;-83
2023/12/17 08:46:51;;;;;;;;;30.67;27.33;;;;;6.59;78.68;103180.28;4890042;29;44866;-81
2023/12/17 08:49:17;;;;;;;;;21.33;21.00;;;;;6.58;78.32;103180.16;4905505;29;45685;-80
2023/12/17 08:51:42;;;;;;;;;34.33;28.00;;;;;6.53;78.67;103160.44;4905712;29;44826;-81
2023/12/17 08:54:12;;;;;;;;;33.33;31.33;;;;;6.56;78.33;103164.22;4906893;29;44752;-80
2023/12/17 08:56:38;;;;;;;;;27.67;22.00;;;;;6.60;78.35;103174.22;4907001;29;44755;-80
2023/12/17 08:59:04;;;;;;;;;19.67;19.67;;;;;6.60;78.66;103171.56;4907052;29;45366;-80
2023/12/17 09:01:30;;;;;;;;;31.67;26.67;;;;;6.70;78.72;103174.81;4907776;29;44809;-80
2023/12/17 09:03:56;;;;;;;;;27.33;23.33;;;;;6.56;78.75;103171.22;4890077;29;44790;-81
2023/12/17 09:06:21;;;;;;;;;28.33;27.33;;;;;6.56;78.47;103172.16;4908163;29;44777;-82
2023/12/17 09:08:47;;;;;;;;;33.00;32.67;;;;;6.63;78.75;103173.50;4905307;28;46699;-83
2023/12/17 09:11:12;;;;;;;;;28.00;27.33;;;;;6.60;78.88;103171.56;4904973;29;44786;-81
2023/12/17 09:13:38;;;;;;;;;15.33;11.33;;;;;6.70;78.71;103169.53;4889812;29;44765;-80
2023/12/17 09:16:04;;;;;;;;;27.67;26.33;;;;;6.70;78.22;103166.88;4889242;29;45128;-80
2023/12/17 09:18:29;;;;;;;;;34.33;32.67;;;;;6.70;78.59;103159.88;4906526;29;45158;-80
2023/12/17 09:20:55;;;;;;;;;27.00;20.00;;;;;6.74;78.65;103167.19;4888624;28;44720;-81
2023/12/17 09:23:21;;;;;;;;;31.33;27.33;;;;;6.73;78.69;103156.53;4904832;29;44812;-80
2023/12/17 09:25:49;;;;;;;;;27.00;25.00;;;;;6.93;78.46;103161.44;4904920;29;44870;-80
2023/12/17 09:28:15;;;;;;;;;23.67;23.67;;;;;6.84;78.11;103168.75;4905513;29;45646;-82
2023/12/17 09:30:41;;;;;;;;;32.00;24.67;;;;;6.86;78.66;103167.13;4902661;29;44928;-80
2023/12/17 09:33:07;;;;;;;;;24.00;21.67;;;;;6.90;78.04;103177.09;4904261;29;44863;-81
2023/12/17 09:35:33;;;;;;;;;24.00;23.67;;;;;6.93;78.09;103172.03;4903661;28;44972;-80
2023/12/17 09:37:59;;;;;;;;;33.00;29.00;;;;;6.92;78.25;103166.63;4889333;28;47025;-80
2023/12/17 09:40:25;;;;;;;;;29.67;28.00;;;;;6.98;78.47;103167.94;4904908;29;44858;-81
2023/12/17 09:42:53;;;;;;;;;24.00;22.33;;;;;7.09;77.50;103175.69;4889223;28;45251;-83
2023/12/17 09:45:18;;;;;;;;;22.33;20.00;;;;;7.05;77.21;103173.66;4905848;29;44876;-82
2023/12/17 09:47:44;;;;;;;;;27.33;25.00;;;;;7.11;77.57;103174.06;4890015;29;47224;-81
2023/12/17 09:50:10;;;;;;;;;23.33;21.67;;;;;7.17;77.52;103177.13;4905560;29;44777;-82
2023/12/17 09:52:43;;;;;;;;;27.00;25.00;;;;;7.26;77.57;103171.56;4888761;29;44758;-79
2023/12/17 09:55:12;;;;;;;;;26.33;25.33;;;;;7.31;77.45;103167.47;4905533;29;45011;-81
2023/12/17 09:57:38;;;;;;;;;24.33;21.67;;;;;7.16;77.43;103163.00;4904296;29;47413;-79
2023/12/17 10:00:09;;;;;;;;;30.67;29.00;;;;;7.26;77.58;103156.59;4904492;28;44758;-81
2023/12/17 10:02:35;;;;;;;;;30.00;28.00;;;;;7.22;77.96;103162.50;4884265;29;44816;-84
2023/12/17 10:05:07;;;;;;;;;27.00;22.33;;;;;7.33;77.10;103165.84;4871130;29;45388;-83
2023/12/17 10:07:39;;;;;;;;;28.67;25.67;;;;;7.59;77.28;103162.25;4870829;29;47124;-83
2023/12/17 10:10:06;;;;;;;;;24.67;21.00;;;;;7.38;77.24;103160.03;4885098;29;45468;-83
2023/12/17 10:13:27;;;;;;;;;31.67;31.33;;;;;7.68;77.37;103161.97;4870743;29;45588;-83
2023/12/17 10:15:55;;;;;;;;;29.67;29.67;;;;;7.58;77.32;103164.00;4872295;29;45414;-84
2023/12/17 10:18:21;;;;;;;;;29.00;27.67;;;;;7.62;77.02;103165.13;4871985;29;47953;-83
2023/12/17 10:20:48;;;;;;;;;32.00;28.00;;;;;7.60;77.11;103156.16;4871908;29;45481;-84
2023/12/17 10:23:13;;;;;;;;;28.33;28.33;;;;;7.66;76.77;103151.25;4887852;29;45475;-84
2023/12/17 10:25:43;;;;;;;;;28.33;28.33;;;;;7.64;76.68;103137.00;4868035;29;45540;-83
2023/12/17 10:28:12;;;;;;;;;31.33;27.00;;;;;7.92;76.33;103146.72;4868152;29;47227;-83
2023/12/17 10:30:41;;;;;;;;;31.00;27.00;;;;;7.93;76.50;103137.94;4882394;29;45469;-84
2023/12/17 10:33:10;;;;;;;;;32.67;29.00;;;;;7.89;76.16;103133.25;4866622;29;45493;-84
2023/12/17 10:35:35;;;;;;;;;31.67;31.67;;;;;7.94;75.97;103134.50;4876081;29;45664;-83
2023/12/17 10:38:09;;;;;;;;;22.67;21.33;;;;;8.07;76.03;103129.13;4865701;29;45424;-84
2023/12/17 10:40:39;;;;;;;;;36.67;29.67;;;;;7.98;75.18;103133.88;4866298;29;45551;-83
2023/12/17 10:43:05;;;;;;;;;31.67;27.33;;;;;7.99;75.43;103130.38;4850509;29;45530;-83
2023/12/17 10:45:35;;;;;;;;;32.00;29.33;;;;;8.05;75.22;103135.16;4851843;29;45463;-83
2023/12/17 10:48:01;;;;;;;;;29.33;25.67;;;;;8.13;75.07;103118.00;4852424;29;47427;-83
2023/12/17 10:50:27;;;;;;;;;26.00;24.00;;;;;8.06;75.42;103103.44;4867091;29;45590;-83
2023/12/17 10:52:53;;;;;;;;;35.33;27.00;;;;;8.11;74.85;103099.34;4850733;29;45476;-83
2023/12/17 10:55:19;;;;;;;;;27.33;27.33;;;;;8.15;74.83;103090.75;4867478;29;45545;-83
2023/12/17 10:58:07;;;;;;;;;32.00;30.67;;;;;8.45;74.49;103096.16;4852198;29;47398;-82
2023/12/17 11:00:34;;;;;;;;;34.67;32.33;;;;;8.41;74.79;103100.34;4867657;29;45798;-83
2023/12/17 11:03:06;;;;;;;;;33.33;30.00;;;;;8.51;74.10;103096.50;4853939;29;45418;-83
2023/12/17 11:05:32;;;;;;;;;25.67;21.33;;;;;8.35;74.02;103084.03;4853025;29;45582;-83
2023/12/17 11:07:59;;;;;;;;;30.67;26.67;;;;;8.58;74.04;103088.13;4837457;28;47118;-84
2023/12/17 11:10:25;;;;;;;;;26.67;24.00;;;;;8.48;73.62;103092.75;4823448;29;45863;-80
2023/12/17 11:12:50;;;;;;;;;33.67;31.33;;;;;8.48;73.32;103084.78;4869056;28;45464;-80
2023/12/17 11:18:42;;;;;;;;;28.67;27.67;;;;;8.76;72.89;103076.75;4869018;29;45436;-80
2023/12/17 11:21:08;;;;;;;;;36.67;32.67;;;;;8.63;72.79;103082.16;4868365;29;45449;-81
2023/12/17 11:23:33;;;;;;;;;36.33;30.67;;;;;8.64;72.96;103082.25;4849723;29;45445;-80
2023/12/17 11:26:00;;;;;;;;;32.00;28.67;;;;;8.72;72.30;103074.75;4850722;29;45326;-81
2023/12/17 11:28:26;;;;;;;;;31.33;30.00;;;;;8.64;72.52;103082.25;4867971;29;45374;-80
2023/12/17 11:30:52;;;;;;;;;26.67;23.67;;;;;8.58;72.81;103050.97;4852119;29;44914;-80
2023/12/17 11:33:17;;;;;;;;;32.67;31.00;;;;;8.71;73.03;103062.31;4852280;29;44826;-80
2023/12/17 11:35:44;;;;;;;;;33.67;31.33;;;;;8.85;73.21;103072.00;4851356;29;44919;-85